createdAt,value
2017-10-07T00:01:35.537Z,10.10
2017-10-07T00:04:02.985Z,10.10
2017-10-07T00:06:30.427Z,10.10
2017-10-07T00:08:57.884Z,10.10
2017-10-07T00:11:26.091Z,10.10
2017-10-07T00:13:53.531Z,10.10
2017-10-07T00:16:20.984Z,10.10
2017-10-07T00:18:48.408Z,10.10
2017-10-07T00:21:15.849Z,10.10
2017-10-07T00:23:43.276Z,10.10
2017-10-07T00:26:11.489Z,10.20
2017-10-07T00:28:38.923Z,10.20
2017-10-07T00:31:06.393Z,10.10
2017-10-07T00:33:33.836Z,10.10
2017-10-07T00:36:01.311Z,10.10
2017-10-07T00:38:29.515Z,10.00
2017-10-07T00:40:56.948Z,10.00
2017-10-07T00:43:24.392Z,10.10
2017-10-07T00:45:51.836Z,10.10
2017-10-07T00:48:19.267Z,10.10
2017-10-07T00:50:46.728Z,10.10
2017-10-07T00:53:14.925Z,10.20
2017-10-07T00:55:43.137Z,10.20
2017-10-07T00:58:10.614Z,10.10
2017-10-07T01:00:38.168Z,10.20
2017-10-07T01:03:05.708Z,10.20
2017-10-07T01:05:33.152Z,10.20
2017-10-07T01:08:00.583Z,10.20
2017-10-07T01:10:28.159Z,10.10
2017-10-07T01:12:55.609Z,10.20
2017-10-07T01:15:23.058Z,10.20
2017-10-07T01:17:50.501Z,10.10
2017-10-07T01:20:17.948Z,10.20
2017-10-07T01:22:45.392Z,10.20
2017-10-07T01:25:12.833Z,10.20
2017-10-07T01:27:40.342Z,10.20
2017-10-07T01:30:07.771Z,10.20
2017-10-07T01:32:35.218Z,10.20
2017-10-07T01:35:02.657Z,10.20
2017-10-07T01:37:30.110Z,10.30
2017-10-07T01:39:57.549Z,10.30
2017-10-07T01:42:24.992Z,10.20
2017-10-07T01:44:52.423Z,10.20
2017-10-07T01:47:19.881Z,10.20
2017-10-07T01:49:47.328Z,10.20
2017-10-07T01:52:15.540Z,10.20
2017-10-07T01:54:42.975Z,10.20
2017-10-07T01:57:10.424Z,10.10
2017-10-07T01:59:37.865Z,10.10
2017-10-07T02:02:05.320Z,10.10
2017-10-07T02:04:32.750Z,10.10
2017-10-07T02:07:01.065Z,10.10
2017-10-07T02:09:29.279Z,10.20
2017-10-07T02:11:56.748Z,10.20
2017-10-07T02:14:24.187Z,10.20
2017-10-07T02:16:51.619Z,10.20
2017-10-07T02:19:19.085Z,10.20
2017-10-07T02:21:46.532Z,10.20
2017-10-07T02:24:14.064Z,10.20
2017-10-07T02:26:41.509Z,10.20
2017-10-07T02:29:08.943Z,10.20
2017-10-07T02:31:36.384Z,10.20
2017-10-07T02:34:03.841Z,10.10
2017-10-07T02:36:31.281Z,10.10
2017-10-07T02:38:58.735Z,10.10
2017-10-07T02:41:26.173Z,10.10
2017-10-07T02:43:53.648Z,10.10
2017-10-07T02:46:21.128Z,10.10
2017-10-07T02:48:48.575Z,10.10
2017-10-07T02:51:16.029Z,10.10
2017-10-07T02:53:43.464Z,10.10
2017-10-07T02:56:10.913Z,10.10
2017-10-07T02:58:38.377Z,10.10
2017-10-07T03:01:05.820Z,10.10
2017-10-07T03:03:33.269Z,10.00
2017-10-07T03:06:01.481Z,10.10
2017-10-07T03:08:28.930Z,10.10
2017-10-07T03:10:56.374Z,10.10
2017-10-07T03:13:23.923Z,10.20
2017-10-07T03:15:51.343Z,10.20
2017-10-07T03:18:18.779Z,10.10
2017-10-07T03:20:46.240Z,10.10
2017-10-07T03:23:13.713Z,10.10
2017-10-07T03:25:41.257Z,10.10
2017-10-07T03:28:08.700Z,10.00
2017-10-07T03:30:36.958Z,10.10
2017-10-07T03:33:04.403Z,10.10
2017-10-07T03:35:31.901Z,10.00
2017-10-07T03:37:59.405Z,9.90
2017-10-07T03:40:27.615Z,9.80
2017-10-07T03:42:55.051Z,9.80
2017-10-07T03:45:22.504Z,9.90
2017-10-07T03:47:49.951Z,9.90
2017-10-07T03:50:17.395Z,9.90
2017-10-07T03:52:44.842Z,9.90
2017-10-07T03:55:12.271Z,9.90
2017-10-07T03:57:39.711Z,10.00
2017-10-07T04:00:07.168Z,10.00
2017-10-07T04:02:34.600Z,10.00
2017-10-07T04:05:02.048Z,10.00
2017-10-07T04:07:29.492Z,10.00
2017-10-07T04:09:56.996Z,10.00
2017-10-07T04:12:25.196Z,10.00
2017-10-07T04:14:52.631Z,10.00
2017-10-07T04:17:20.083Z,10.00
2017-10-07T04:19:47.545Z,10.00
2017-10-07T04:22:14.996Z,10.00
2017-10-07T04:24:42.451Z,10.00
2017-10-07T04:27:10.665Z,10.00
2017-10-07T04:29:38.125Z,10.00
2017-10-07T04:32:05.567Z,10.00
2017-10-07T04:34:33.008Z,10.00
2017-10-07T04:37:00.451Z,9.90
2017-10-07T04:39:27.884Z,9.90
2017-10-07T04:41:55.333Z,9.90
2017-10-07T04:44:22.787Z,9.90
2017-10-07T04:46:50.236Z,9.90
2017-10-07T04:49:17.651Z,9.90
2017-10-07T04:51:45.098Z,9.90
2017-10-07T04:54:12.551Z,10.00
2017-10-07T04:56:40.016Z,10.00
2017-10-07T04:59:07.501Z,10.00
2017-10-07T05:01:34.956Z,10.00
2017-10-07T05:04:02.391Z,10.00
2017-10-07T05:06:29.871Z,10.10
2017-10-07T05:08:57.327Z,10.10
2017-10-07T05:11:24.868Z,10.10
2017-10-07T05:13:52.309Z,10.10
2017-10-07T05:16:19.769Z,10.10
2017-10-07T05:18:47.976Z,10.10
2017-10-07T05:21:15.419Z,10.10
2017-10-07T05:23:42.871Z,10.10
2017-10-07T05:26:10.316Z,10.20
2017-10-07T05:28:37.771Z,10.20
2017-10-07T05:31:05.207Z,10.10
2017-10-07T05:33:32.665Z,10.10
2017-10-07T05:36:00.112Z,10.10
2017-10-07T05:38:27.608Z,10.00
2017-10-07T05:40:55.036Z,9.90
2017-10-07T05:43:22.480Z,9.90
2017-10-07T05:45:49.924Z,9.90
2017-10-07T05:48:17.364Z,9.80
2017-10-07T05:50:44.798Z,9.80
2017-10-07T05:53:12.250Z,9.70
2017-10-07T05:55:40.442Z,9.80
2017-10-07T05:58:07.881Z,9.80
2017-10-07T06:00:35.316Z,9.80
2017-10-07T06:03:02.765Z,9.80
2017-10-07T06:05:30.213Z,9.80
2017-10-07T06:07:57.665Z,9.90
2017-10-07T06:10:25.106Z,9.80
2017-10-07T06:12:52.554Z,9.90
2017-10-07T06:15:19.991Z,9.90
2017-10-07T06:17:47.460Z,10.00
2017-10-07T06:20:14.908Z,10.10
2017-10-07T06:22:43.124Z,10.10
2017-10-07T06:25:10.588Z,10.20
2017-10-07T06:27:38.035Z,10.20
2017-10-07T06:30:05.547Z,10.20
2017-10-07T06:32:32.972Z,10.30
2017-10-07T06:35:00.432Z,10.40
2017-10-07T06:37:27.875Z,10.40
2017-10-07T06:39:55.329Z,10.40
2017-10-07T06:42:22.771Z,10.40
2017-10-07T06:44:50.240Z,10.40
2017-10-07T06:47:17.693Z,10.40
2017-10-07T06:49:45.134Z,10.40
2017-10-07T06:52:12.589Z,10.50
2017-10-07T06:54:40.806Z,10.60
2017-10-07T06:57:08.297Z,10.60
2017-10-07T06:59:36.524Z,10.60
2017-10-07T07:02:03.952Z,10.60
2017-10-07T07:04:31.392Z,10.70
2017-10-07T07:06:59.608Z,11.00
2017-10-07T07:09:27.818Z,11.10
2017-10-07T07:11:55.296Z,11.10
2017-10-07T07:14:23.512Z,11.30
2017-10-07T07:16:50.963Z,11.30
2017-10-07T07:19:18.408Z,11.40
2017-10-07T07:21:45.864Z,11.50
2017-10-07T07:24:13.297Z,11.50
2017-10-07T07:26:40.737Z,11.50
2017-10-07T07:29:08.280Z,11.50
2017-10-07T07:31:35.705Z,11.60
2017-10-07T07:34:03.131Z,11.60
2017-10-07T07:36:30.585Z,11.60
2017-10-07T07:38:58.015Z,11.60
2017-10-07T07:41:26.247Z,11.70
2017-10-07T07:43:54.533Z,11.80
2017-10-07T07:46:21.984Z,11.80
2017-10-07T07:48:49.421Z,11.90
2017-10-07T07:51:16.881Z,12.00
2017-10-07T07:53:44.309Z,12.10
2017-10-07T07:56:11.749Z,12.10
2017-10-07T07:58:39.203Z,12.20
2017-10-07T08:01:06.640Z,12.30
2017-10-07T08:03:34.080Z,12.40
2017-10-07T08:06:01.518Z,12.40
2017-10-07T08:08:28.951Z,12.40
2017-10-07T08:10:57.161Z,12.50
2017-10-07T08:13:24.609Z,12.50
2017-10-07T08:15:52.049Z,12.50
2017-10-07T08:18:19.483Z,12.60
2017-10-07T08:20:46.960Z,12.70
2017-10-07T08:23:14.396Z,12.70
2017-10-07T08:25:41.827Z,12.80
2017-10-07T08:28:09.273Z,12.90
2017-10-07T08:30:36.727Z,12.90
2017-10-07T08:33:04.181Z,13.10
2017-10-07T08:35:32.383Z,13.20
2017-10-07T08:37:59.846Z,13.20
2017-10-07T08:40:27.283Z,13.20
2017-10-07T08:42:54.724Z,13.40
2017-10-07T08:45:22.166Z,13.40
2017-10-07T08:47:49.635Z,13.50
2017-10-07T08:50:17.084Z,13.40
2017-10-07T08:52:44.539Z,13.50
2017-10-07T08:55:12.740Z,13.30
2017-10-07T08:57:40.198Z,13.30
2017-10-07T09:00:07.657Z,13.30
2017-10-07T09:02:35.155Z,13.40
2017-10-07T09:05:02.587Z,13.40
2017-10-07T09:07:30.808Z,13.30
2017-10-07T09:09:58.233Z,13.30
2017-10-07T09:12:25.689Z,13.30
2017-10-07T09:14:53.132Z,13.30
2017-10-07T09:17:20.567Z,13.30
2017-10-07T09:19:48.019Z,13.40
2017-10-07T09:22:15.455Z,13.30
2017-10-07T09:24:42.899Z,13.20
2017-10-07T09:27:10.353Z,13.20
2017-10-07T09:29:37.788Z,13.40
2017-10-07T09:32:05.241Z,13.70
2017-10-07T09:34:32.680Z,14.00
2017-10-07T09:37:00.109Z,14.10
2017-10-07T09:39:27.680Z,14.00
2017-10-07T09:41:55.112Z,14.20
2017-10-07T09:44:22.543Z,14.30
2017-10-07T09:46:49.991Z,14.60
2017-10-07T09:49:17.451Z,14.70
2017-10-07T09:51:44.869Z,15.00
2017-10-07T09:54:12.303Z,15.10
2017-10-07T09:56:39.738Z,15.20
2017-10-07T09:59:07.225Z,15.30
2017-10-07T10:01:34.677Z,15.50
2017-10-07T10:04:02.894Z,15.80
2017-10-07T10:06:30.338Z,15.80
2017-10-07T10:08:57.773Z,15.90
2017-10-07T10:11:25.214Z,16.10
2017-10-07T10:13:52.683Z,16.10
2017-10-07T10:16:20.120Z,16.10
2017-10-07T10:18:47.564Z,16.10
2017-10-07T10:21:15.011Z,16.10
2017-10-07T10:23:42.681Z,16.10
2017-10-07T10:26:10.887Z,15.90
2017-10-07T10:28:38.318Z,15.90
2017-10-07T10:31:05.756Z,15.90
2017-10-07T10:33:33.187Z,15.80
2017-10-07T10:36:00.628Z,15.70
2017-10-07T10:38:28.068Z,15.70
2017-10-07T10:40:55.503Z,15.60
2017-10-07T10:43:23.717Z,15.30
2017-10-07T10:45:51.168Z,15.20
2017-10-07T10:48:18.608Z,15.10
2017-10-07T10:50:46.061Z,15.10
2017-10-07T10:53:13.500Z,15.20
2017-10-07T10:55:40.947Z,15.20
2017-10-07T10:58:08.380Z,15.30
2017-10-07T11:00:35.832Z,15.20
2017-10-07T11:03:03.284Z,15.10
2017-10-07T11:05:30.739Z,15.10
2017-10-07T11:07:58.980Z,15.10
2017-10-07T11:10:26.392Z,15.00
2017-10-07T11:12:53.825Z,15.10
2017-10-07T11:15:21.251Z,15.10
2017-10-07T11:17:48.740Z,15.10
2017-10-07T11:20:16.198Z,14.90
2017-10-07T11:22:43.716Z,14.70
2017-10-07T11:25:11.150Z,14.60
2017-10-07T11:27:38.617Z,14.50
2017-10-07T11:30:06.052Z,14.60
2017-10-07T11:32:33.504Z,14.60
2017-10-07T11:35:00.951Z,14.80
2017-10-07T11:37:28.466Z,15.00
2017-10-07T11:39:55.883Z,15.10
2017-10-07T11:42:23.374Z,15.30
2017-10-07T11:44:50.809Z,15.10
2017-10-07T11:47:18.249Z,15.00
2017-10-07T11:49:45.681Z,15.00
2017-10-07T11:52:13.128Z,15.10
2017-10-07T11:54:40.565Z,15.20
2017-10-07T11:57:08.014Z,15.20
2017-10-07T11:59:35.452Z,15.30
2017-10-07T12:02:02.920Z,15.40
2017-10-07T12:04:30.396Z,15.40
2017-10-07T12:06:57.827Z,15.20
2017-10-07T12:09:27.057Z,15.30
2017-10-07T12:11:54.487Z,15.30
2017-10-07T12:14:22.006Z,15.20
2017-10-07T12:16:50.242Z,15.30
2017-10-07T12:19:17.675Z,15.20
2017-10-07T12:21:45.157Z,15.30
2017-10-07T12:24:12.629Z,15.30
2017-10-07T12:26:40.231Z,15.40
2017-10-07T12:29:08.431Z,15.40
2017-10-07T12:31:35.873Z,15.40
2017-10-07T12:34:03.360Z,15.50
2017-10-07T12:36:30.824Z,15.40
2017-10-07T12:38:59.051Z,15.20
2017-10-07T12:41:26.488Z,15.10
2017-10-07T12:43:53.936Z,15.20
2017-10-07T12:46:21.394Z,15.20
2017-10-07T12:48:48.841Z,15.30
2017-10-07T12:51:16.385Z,15.50
2017-10-07T12:53:43.916Z,15.60
2017-10-07T12:56:12.119Z,15.50
2017-10-07T12:58:39.584Z,15.50
2017-10-07T13:01:07.024Z,15.50
2017-10-07T13:03:34.453Z,15.50
2017-10-07T13:06:02.043Z,15.60
2017-10-07T13:08:29.877Z,15.70
2017-10-07T13:10:57.343Z,15.70
2017-10-07T13:13:24.788Z,15.60
2017-10-07T13:15:52.243Z,15.60
2017-10-07T13:18:19.699Z,15.50
2017-10-07T13:20:47.132Z,15.60
2017-10-07T13:23:15.371Z,15.60
2017-10-07T13:25:42.837Z,15.60
2017-10-07T13:28:11.061Z,15.60
2017-10-07T13:30:38.498Z,15.60
2017-10-07T13:33:05.942Z,15.70
2017-10-07T13:35:33.378Z,15.50
2017-10-07T13:38:00.825Z,15.50
2017-10-07T13:40:28.266Z,15.40
2017-10-07T13:42:55.727Z,15.30
2017-10-07T13:45:23.946Z,15.10
2017-10-07T13:47:51.378Z,15.10
2017-10-07T13:50:18.812Z,15.20
2017-10-07T13:52:47.033Z,15.00
2017-10-07T13:55:14.484Z,14.90
2017-10-07T13:57:41.929Z,14.90
2017-10-07T14:00:09.370Z,14.90
2017-10-07T14:02:36.811Z,14.90
2017-10-07T14:05:04.251Z,14.90
2017-10-07T14:07:31.704Z,14.90
2017-10-07T14:09:59.133Z,14.90
2017-10-07T14:12:26.571Z,14.80
2017-10-07T14:14:54.138Z,14.70
2017-10-07T14:17:21.557Z,14.80
2017-10-07T14:19:48.990Z,14.70
2017-10-07T14:22:16.431Z,14.60
2017-10-07T14:24:43.859Z,14.60
2017-10-07T14:27:11.320Z,14.70
2017-10-07T14:29:38.753Z,14.60
2017-10-07T14:32:06.225Z,14.60
2017-10-07T14:34:33.678Z,14.40
2017-10-07T14:37:01.103Z,14.40
2017-10-07T14:39:28.599Z,14.20
2017-10-07T14:41:56.047Z,14.10
2017-10-07T14:44:23.510Z,14.10
2017-10-07T14:46:50.915Z,14.20
2017-10-07T14:49:19.126Z,14.20
2017-10-07T14:51:46.551Z,14.20
2017-10-07T14:54:13.997Z,14.20
2017-10-07T14:56:41.441Z,14.30
2017-10-07T14:59:08.923Z,14.40
2017-10-07T15:01:36.383Z,14.30
2017-10-07T15:04:03.841Z,14.20
2017-10-07T15:06:31.295Z,14.20
2017-10-07T15:08:59.530Z,14.10
2017-10-07T15:11:27.071Z,14.10
2017-10-07T15:13:54.528Z,14.10
2017-10-07T15:16:21.960Z,13.90
2017-10-07T15:18:49.398Z,13.90
2017-10-07T15:21:17.093Z,13.80
2017-10-07T15:23:44.527Z,13.80
2017-10-07T15:26:12.727Z,13.80
2017-10-07T15:28:40.155Z,13.80
2017-10-07T15:31:07.605Z,13.70
2017-10-07T15:33:35.036Z,13.70
2017-10-07T15:36:03.247Z,13.70
2017-10-07T15:38:30.680Z,13.70
2017-10-07T15:40:58.131Z,13.70
2017-10-07T15:43:25.568Z,13.70
2017-10-07T15:45:53.076Z,13.60
2017-10-07T15:48:20.616Z,13.70
2017-10-07T15:50:48.168Z,13.60
2017-10-07T15:53:15.592Z,13.70
2017-10-07T15:55:43.032Z,13.50
2017-10-07T15:58:10.472Z,13.40
2017-10-07T16:00:38.465Z,13.40
2017-10-07T16:03:06.676Z,13.40
2017-10-07T16:05:34.112Z,13.40
2017-10-07T16:08:01.624Z,13.50
2017-10-07T16:10:29.105Z,13.50
2017-10-07T16:12:56.546Z,13.50
2017-10-07T16:15:23.987Z,13.50
2017-10-07T16:17:51.456Z,13.50
2017-10-07T16:20:18.906Z,13.40
2017-10-07T16:22:46.371Z,13.50
2017-10-07T16:25:14.580Z,13.40
2017-10-07T16:27:42.026Z,13.40
2017-10-07T16:30:09.488Z,13.50
2017-10-07T16:32:36.932Z,13.40
2017-10-07T16:35:04.360Z,13.40
2017-10-07T16:37:31.860Z,13.40
2017-10-07T16:39:59.285Z,13.50
2017-10-07T16:42:27.521Z,13.40
2017-10-07T16:44:54.965Z,13.40
2017-10-07T16:47:22.408Z,13.40
2017-10-07T16:49:49.844Z,13.40
2017-10-07T16:52:17.325Z,13.40
2017-10-07T16:54:44.851Z,13.30
2017-10-07T16:57:12.364Z,13.30
2017-10-07T16:59:39.926Z,13.30
2017-10-07T17:02:07.496Z,13.20
2017-10-07T17:04:35.703Z,13.20
2017-10-07T17:07:03.132Z,13.20
2017-10-07T17:09:30.583Z,13.10
2017-10-07T17:11:58.117Z,13.10
2017-10-07T17:14:25.548Z,13.00
2017-10-07T17:16:52.983Z,13.00
2017-10-07T17:19:20.439Z,13.00
2017-10-07T17:21:47.872Z,13.10
2017-10-07T17:24:15.328Z,13.00
2017-10-07T17:26:42.768Z,13.00
2017-10-07T17:29:10.288Z,13.00
2017-10-07T17:31:38.615Z,12.90
2017-10-07T17:34:06.134Z,12.90
2017-10-07T17:36:33.564Z,12.90
2017-10-07T17:39:01.025Z,12.90
2017-10-07T17:41:28.478Z,12.90
2017-10-07T17:43:55.927Z,12.90
2017-10-07T17:46:23.355Z,12.80
2017-10-07T17:48:50.806Z,12.90
2017-10-07T17:51:18.277Z,12.90
2017-10-07T17:53:45.718Z,12.80
2017-10-07T17:56:13.153Z,12.80
2017-10-07T17:58:40.588Z,12.80
2017-10-07T18:01:08.068Z,12.80
2017-10-07T18:03:36.272Z,12.80
2017-10-07T18:06:03.752Z,12.70
2017-10-07T18:08:32.029Z,12.80
2017-10-07T18:11:00.280Z,12.70
2017-10-07T18:13:29.556Z,12.70
2017-10-07T18:15:57.005Z,12.70
2017-10-07T18:18:24.440Z,12.70
2017-10-07T18:20:51.975Z,12.70
2017-10-07T18:23:19.431Z,12.80
2017-10-07T18:25:46.867Z,12.70
2017-10-07T18:28:14.312Z,12.70
2017-10-07T18:30:41.798Z,12.70
2017-10-07T18:33:09.223Z,12.70
2017-10-07T18:35:36.676Z,12.70
2017-10-07T18:38:04.107Z,12.70
2017-10-07T18:40:32.353Z,12.70
2017-10-07T18:42:59.789Z,12.70
2017-10-07T18:45:27.325Z,12.70
2017-10-07T18:47:54.743Z,12.70
2017-10-07T18:50:22.205Z,12.60
2017-10-07T18:52:49.661Z,12.70
2017-10-07T18:55:17.106Z,12.60
2017-10-07T18:57:44.564Z,12.60
2017-10-07T19:00:12.773Z,12.60
2017-10-07T19:02:40.207Z,12.60
2017-10-07T19:05:07.656Z,12.60
2017-10-07T19:07:35.092Z,12.60
2017-10-07T19:10:02.563Z,12.60
2017-10-07T19:12:30.093Z,12.70
2017-10-07T19:14:57.530Z,12.70
2017-10-07T19:17:25.019Z,12.70
2017-10-07T19:19:53.251Z,12.70
2017-10-07T19:22:20.716Z,12.70
2017-10-07T19:24:48.919Z,12.70
2017-10-07T19:27:16.384Z,12.70
2017-10-07T19:29:43.875Z,12.70
2017-10-07T19:32:12.101Z,12.70
2017-10-07T19:34:39.534Z,12.70
2017-10-07T19:37:06.992Z,12.80
2017-10-07T19:39:34.467Z,12.80
2017-10-07T19:42:01.983Z,12.70
2017-10-07T19:44:29.424Z,12.70
2017-10-07T19:46:56.872Z,12.70
2017-10-07T19:49:24.295Z,12.70
2017-10-07T19:51:51.732Z,12.70
2017-10-07T19:54:19.176Z,12.70
2017-10-07T19:56:46.631Z,12.70
2017-10-07T19:59:14.126Z,12.70
2017-10-07T20:01:41.576Z,12.70
2017-10-07T20:04:09.084Z,12.70
2017-10-07T20:06:36.535Z,12.70
2017-10-07T20:09:04.736Z,12.80
2017-10-07T20:11:32.216Z,12.70
2017-10-07T20:13:59.681Z,12.70
2017-10-07T20:16:27.132Z,12.70
2017-10-07T20:18:55.342Z,12.60
2017-10-07T20:21:22.776Z,12.60
2017-10-07T20:23:50.260Z,12.50
2017-10-07T20:26:17.699Z,12.50
2017-10-07T20:28:46.052Z,12.50
2017-10-07T20:31:13.499Z,12.50
2017-10-07T20:33:40.958Z,12.50
2017-10-07T20:36:09.162Z,12.40
2017-10-07T20:38:36.603Z,12.40
2017-10-07T20:41:04.042Z,12.40
2017-10-07T20:43:31.543Z,12.40
2017-10-07T20:45:58.972Z,12.40
2017-10-07T20:48:26.511Z,12.40
2017-10-07T20:50:53.960Z,12.40
2017-10-07T20:53:21.400Z,12.50
2017-10-07T20:55:48.938Z,12.50
2017-10-07T20:58:16.389Z,12.50
2017-10-07T21:00:43.823Z,12.40
2017-10-07T21:03:11.268Z,12.40
2017-10-07T21:05:38.713Z,12.50
2017-10-07T21:08:06.168Z,12.40
2017-10-07T21:10:33.709Z,12.40
2017-10-07T21:13:01.158Z,12.40
2017-10-07T21:15:28.624Z,12.40
2017-10-07T21:17:56.045Z,12.50
2017-10-07T21:20:24.272Z,12.40
2017-10-07T21:22:51.717Z,12.40
2017-10-07T21:25:19.156Z,12.50
2017-10-07T21:27:46.633Z,12.50
2017-10-07T21:30:14.172Z,12.50
2017-10-07T21:32:41.613Z,12.50
2017-10-07T21:35:09.169Z,12.50
2017-10-07T21:37:37.372Z,12.50
2017-10-07T21:40:04.852Z,12.50
2017-10-07T21:42:33.075Z,12.50
2017-10-07T21:45:00.512Z,12.50
2017-10-07T21:47:27.952Z,12.40
2017-10-07T21:49:55.394Z,12.40
2017-10-07T21:52:22.884Z,12.30
2017-10-07T21:54:50.340Z,12.30
2017-10-07T21:57:17.881Z,12.20
2017-10-07T21:59:45.426Z,12.20
2017-10-07T22:02:12.955Z,12.00
2017-10-07T22:04:40.407Z,12.00
2017-10-07T22:07:07.958Z,11.90
2017-10-07T22:09:35.392Z,11.90
2017-10-07T22:12:02.935Z,11.90
2017-10-07T22:14:30.388Z,11.90
2017-10-07T22:16:57.831Z,12.00
2017-10-07T22:19:25.284Z,12.00
2017-10-07T22:21:53.491Z,11.90
2017-10-07T22:24:20.973Z,11.90
2017-10-07T22:26:48.404Z,12.00
2017-10-07T22:29:25.776Z,11.80
2017-10-07T22:31:53.221Z,11.80
2017-10-07T22:34:20.661Z,11.70
2017-10-07T22:36:48.104Z,11.60
2017-10-07T22:39:15.588Z,11.50
2017-10-07T22:41:43.094Z,11.50
2017-10-07T22:44:10.541Z,11.40
2017-10-07T22:46:38.099Z,11.40
2017-10-07T22:49:06.292Z,11.30
2017-10-07T22:51:33.731Z,11.30
2017-10-07T22:54:01.192Z,11.20
2017-10-07T22:56:28.664Z,11.20
2017-10-07T22:58:56.116Z,11.20
2017-10-07T23:01:23.556Z,11.20
2017-10-07T23:03:50.987Z,11.20
2017-10-07T23:06:18.450Z,11.30
2017-10-07T23:08:45.889Z,11.30
2017-10-07T23:11:13.368Z,11.30
2017-10-07T23:13:40.815Z,11.30
2017-10-07T23:16:08.315Z,11.30
2017-10-07T23:18:35.771Z,11.30
2017-10-07T23:21:03.211Z,11.20
2017-10-07T23:23:30.661Z,11.30
2017-10-07T23:25:58.868Z,11.30
2017-10-07T23:28:26.308Z,11.30
2017-10-07T23:30:53.745Z,11.40
2017-10-07T23:33:21.187Z,11.50
2017-10-07T23:35:48.631Z,11.50
2017-10-07T23:38:16.133Z,11.50
2017-10-07T23:40:43.586Z,11.40
2017-10-07T23:43:11.798Z,11.30
2017-10-07T23:45:39.235Z,11.20
2017-10-07T23:48:06.683Z,11.20
2017-10-07T23:50:34.145Z,11.30
2017-10-07T23:53:01.587Z,11.30
2017-10-07T23:55:29.039Z,11.40
2017-10-07T23:57:56.605Z,11.30
